Time;durP1;ratioP1;P1;durP2;ratioP2;P2;SDS_P1;SDS_P2;PMS_P1;PMS_P2;Temp;Humidity;BMP_temperature;BMP_pressure;BME280_temperature;BME280_humidity;BME280_pressure;Samples;Min_cycle;Max_cycle;Signal;HPM_P1;HPM_P2
2021/01/17 00:00:43;;;;;;;18.33;8.43;;;-8.90;99.90;;;;;;5015635;28;20671;-73
2021/01/17 00:03:10;;;;;;;16.63;9.07;;;-9.00;99.90;;;;;;5009958;28;20617;-73
2021/01/17 00:05:37;;;;;;;16.30;8.50;;;-9.00;99.90;;;;;;5015360;28;20771;-71
2021/01/17 00:08:07;;;;;;;20.43;9.20;;;-9.00;99.90;;;;;;5015057;28;20330;-73
2021/01/17 00:10:35;;;;;;;20.90;10.40;;;-9.00;99.90;;;;;;5018024;28;20655;-73
2021/01/17 00:13:02;;;;;;;21.37;9.53;;;-9.10;99.90;;;;;;5016121;28;20223;-73
2021/01/17 00:15:29;;;;;;;22.77;10.17;;;-9.10;99.90;;;;;;5023671;28;20707;-72
2021/01/17 00:17:56;;;;;;;19.60;9.17;;;-9.20;99.90;;;;;;5017159;28;20286;-73
2021/01/17 00:20:23;;;;;;;23.80;9.33;;;-9.20;99.90;;;;;;5013954;28;20207;-72
2021/01/17 00:22:53;;;;;;;17.90;8.27;;;-9.20;99.90;;;;;;5013487;28;20203;-73
2021/01/17 00:25:21;;;;;;;19.13;9.13;;;-9.20;99.90;;;;;;5015387;28;20231;-72
2021/01/17 00:27:50;;;;;;;18.67;8.70;;;-9.30;99.90;;;;;;5010030;28;20690;-73
2021/01/17 00:30:19;;;;;;;20.97;8.47;;;-9.30;99.90;;;;;;5013676;28;20265;-71
2021/01/17 00:32:48;;;;;;;16.80;8.40;;;-9.40;99.90;;;;;;5018884;28;20203;-74
2021/01/17 00:35:15;;;;;;;19.87;9.20;;;-9.40;99.90;;;;;;5019269;28;20628;-72
2021/01/17 00:37:41;;;;;;;18.10;8.17;;;-9.40;99.90;;;;;;5012427;28;20212;-74
2021/01/17 00:40:10;;;;;;;15.07;7.83;;;-9.50;99.90;;;;;;5012589;28;20239;-73
2021/01/17 00:42:43;;;;;;;19.93;8.77;;;-9.50;99.90;;;;;;5013927;28;20217;-73
2021/01/17 00:45:10;;;;;;;20.93;8.27;;;-9.50;99.90;;;;;;5015805;28;20661;-73
2021/01/17 00:47:37;;;;;;;17.90;7.47;;;-9.60;99.90;;;;;;5020075;28;20290;-74
2021/01/17 00:50:04;;;;;;;17.03;8.20;;;-9.60;99.90;;;;;;5014525;28;20617;-73
2021/01/17 00:52:30;;;;;;;16.50;8.83;;;-9.60;99.90;;;;;;5020174;28;20207;-73
2021/01/17 00:54:57;;;;;;;15.30;7.30;;;-9.70;99.90;;;;;;5010511;28;20212;-72
2021/01/17 00:57:26;;;;;;;21.57;7.93;;;-9.70;99.90;;;;;;5013543;28;20294;-73
2021/01/17 00:59:53;;;;;;;18.33;8.47;;;-9.70;99.90;;;;;;5015857;28;20211;-74
2021/01/17 01:02:19;;;;;;;15.47;7.93;;;-9.80;99.90;;;;;;5015091;28;20300;-74
2021/01/17 01:04:46;;;;;;;19.67;7.97;;;-9.80;99.90;;;;;;5014988;28;20290;-74
2021/01/17 01:07:12;;;;;;;17.53;8.17;;;-9.80;99.90;;;;;;5016224;28;20202;-72
2021/01/17 01:09:38;;;;;;;15.67;6.10;;;-9.80;99.90;;;;;;5015981;28;20227;-73
2021/01/17 01:12:05;;;;;;;19.60;7.67;;;-9.80;99.90;;;;;;5015496;28;20235;-73
2021/01/17 01:14:32;;;;;;;19.10;8.67;;;-9.90;99.90;;;;;;5018138;28;20322;-73
2021/01/17 01:16:59;;;;;;;14.00;7.30;;;-10.00;99.90;;;;;;5012277;28;20254;-73
2021/01/17 01:19:25;;;;;;;13.83;7.40;;;-10.00;99.90;;;;;;5013324;28;20196;-74
2021/01/17 01:21:52;;;;;;;17.40;7.50;;;-10.10;99.90;;;;;;5016508;28;20203;-73
2021/01/17 01:24:18;;;;;;;15.77;7.67;;;-10.20;99.90;;;;;;5019611;28;20465;-73
2021/01/17 01:26:46;;;;;;;15.30;7.30;;;-10.20;99.90;;;;;;5012046;28;20211;-74
2021/01/17 01:29:13;;;;;;;15.10;7.60;;;-10.30;99.90;;;;;;5014711;28;20583;-72
2021/01/17 01:31:43;;;;;;;15.93;7.73;;;-10.30;99.90;;;;;;5016931;28;20211;-73
2021/01/17 01:34:09;;;;;;;16.03;7.40;;;-10.30;99.90;;;;;;5016474;28;20580;-72
2021/01/17 01:36:37;;;;;;;16.53;7.70;;;-10.30;99.90;;;;;;5018756;28;20245;-72
2021/01/17 01:39:05;;;;;;;17.13;8.27;;;-10.20;99.90;;;;;;5014924;28;20287;-73
2021/01/17 01:41:33;;;;;;;20.37;8.17;;;-10.20;99.90;;;;;;5013285;28;20287;-72
2021/01/17 01:43:59;;;;;;;18.70;7.13;;;-10.20;99.90;;;;;;5012257;28;20683;-72
2021/01/17 01:46:28;;;;;;;15.53;7.93;;;-10.20;99.90;;;;;;5011812;28;20214;-73
2021/01/17 01:48:56;;;;;;;16.27;6.43;;;-10.20;99.90;;;;;;5018017;28;20307;-73
2021/01/17 01:51:24;;;;;;;19.50;8.07;;;-10.20;99.90;;;;;;5015859;28;20313;-73
2021/01/17 01:53:51;;;;;;;12.13;6.10;;;-10.20;99.90;;;;;;5010964;28;20298;-72
2021/01/17 01:56:18;;;;;;;17.80;8.63;;;-10.30;99.90;;;;;;5012238;28;20539;-73
2021/01/17 01:58:44;;;;;;;17.27;7.57;;;-10.30;99.90;;;;;;5010999;28;20250;-73
2021/01/17 02:01:11;;;;;;;16.03;7.33;;;-10.30;99.90;;;;;;5012784;28;20217;-73
2021/01/17 02:03:38;;;;;;;18.77;7.40;;;-10.30;99.90;;;;;;5019306;28;20725;-73
2021/01/17 02:06:11;;;;;;;17.27;7.77;;;-10.30;99.90;;;;;;5016033;28;20728;-73
2021/01/17 02:09:00;;;;;;;14.53;7.03;;;-10.30;99.90;;;;;;5012886;28;20688;-73
2021/01/17 02:11:41;;;;;;;17.23;7.30;;;-10.30;99.90;;;;;;5014394;28;20318;-73
2021/01/17 02:14:14;;;;;;;15.63;7.03;;;-10.30;99.90;;;;;;5014314;28;20238;-73
2021/01/17 02:16:41;;;;;;;16.93;7.07;;;-10.30;99.90;;;;;;5015014;28;20199;-73
2021/01/17 02:19:09;;;;;;;16.27;7.73;;;-10.30;99.90;;;;;;5015152;28;20203;-74
2021/01/17 02:21:39;;;;;;;12.67;6.87;;;-10.30;99.90;;;;;;5012782;28;20198;-74
2021/01/17 02:24:11;;;;;;;15.70;7.70;;;-10.30;99.90;;;;;;5013882;28;20211;-73
2021/01/17 02:26:39;;;;;;;13.70;6.87;;;-10.30;99.90;;;;;;5014728;28;20337;-73
2021/01/17 02:29:07;;;;;;;13.10;6.73;;;-10.40;99.90;;;;;;5017250;28;20223;-74
2021/01/17 02:31:36;;;;;;;17.20;8.10;;;-10.40;99.90;;;;;;5017008;28;20211;-73
2021/01/17 02:34:04;;;;;;;20.80;8.20;;;-10.50;99.90;;;;;;5017010;28;20207;-74
2021/01/17 02:36:43;;;;;;;17.00;7.50;;;-10.50;99.90;;;;;;5010856;28;20224;-74
2021/01/17 02:39:14;;;;;;;16.50;7.53;;;-10.60;99.90;;;;;;5014059;28;20195;-74
2021/01/17 02:41:54;;;;;;;15.20;7.23;;;-10.70;99.90;;;;;;5018239;28;20211;-74
2021/01/17 02:44:21;;;;;;;18.30;7.90;;;-10.70;99.90;;;;;;5015075;28;20203;-72
2021/01/17 02:46:47;;;;;;;14.37;6.93;;;-10.70;99.90;;;;;;5016281;28;20200;-73
2021/01/17 02:49:14;;;;;;;16.00;7.83;;;-10.80;99.90;;;;;;5017236;28;20233;-73
2021/01/17 02:51:40;;;;;;;15.63;6.60;;;-10.80;99.90;;;;;;5013162;28;20211;-74
2021/01/17 02:54:10;;;;;;;14.97;7.07;;;-10.80;99.90;;;;;;5010568;28;20305;-73
2021/01/17 02:56:41;;;;;;;18.93;7.00;;;-10.80;99.90;;;;;;5006387;28;20215;-74
2021/01/17 02:59:13;;;;;;;15.43;6.73;;;-10.80;99.90;;;;;;5012715;28;20207;-74
2021/01/17 03:01:41;;;;;;;18.07;7.67;;;-10.80;99.90;;;;;;5018642;28;20195;-73
2021/01/17 03:04:14;;;;;;;15.47;7.20;;;-10.80;99.90;;;;;;5011393;28;20211;-74
2021/01/17 03:06:42;;;;;;;15.90;7.50;;;-10.80;99.90;;;;;;5014083;28;20293;-73
2021/01/17 03:09:08;;;;;;;14.00;7.27;;;-10.80;99.90;;;;;;5018152;28;20704;-73
2021/01/17 03:11:35;;;;;;;15.60;7.40;;;-10.80;99.90;;;;;;5018319;28;20313;-74
2021/01/17 03:14:02;;;;;;;15.10;6.77;;;-10.80;99.90;;;;;;5015823;28;20287;-74
2021/01/17 03:16:29;;;;;;;13.07;6.00;;;-10.90;99.90;;;;;;5018456;28;20210;-73
2021/01/17 03:18:56;;;;;;;17.40;7.50;;;-11.00;99.90;;;;;;5026740;28;20207;-74
2021/01/17 03:21:22;;;;;;;24.70;8.07;;;-11.00;99.90;;;;;;5022425;28;20217;-74
2021/01/17 03:23:48;;;;;;;18.37;7.13;;;-11.00;99.90;;;;;;5022682;28;20235;-74
2021/01/17 03:26:15;;;;;;;15.53;7.23;;;-11.00;99.90;;;;;;5015965;28;20242;-73
2021/01/17 03:28:41;;;;;;;16.87;9.23;;;-11.00;99.90;;;;;;5021444;28;20393;-74
2021/01/17 03:31:08;;;;;;;22.87;7.87;;;-11.00;99.90;;;;;;5016203;28;20225;-74
2021/01/17 03:33:35;;;;;;;20.33;7.13;;;-11.00;99.90;;;;;;5020637;28;20627;-74
2021/01/17 03:36:02;;;;;;;17.23;7.37;;;-11.10;99.90;;;;;;5020907;28;20210;-74
2021/01/17 03:38:28;;;;;;;19.80;7.90;;;-11.10;99.90;;;;;;5023697;28;20204;-74
2021/01/17 03:40:54;;;;;;;17.30;7.63;;;-11.00;99.90;;;;;;5022419;28;20213;-73
2021/01/17 03:43:21;;;;;;;15.83;7.67;;;-11.00;99.90;;;;;;5020793;28;20230;-74
2021/01/17 03:45:47;;;;;;;19.87;7.53;;;-11.00;99.90;;;;;;5018938;28;20720;-73
2021/01/17 03:48:14;;;;;;;15.80;7.70;;;-11.00;99.90;;;;;;5023414;28;20249;-73
2021/01/17 03:50:41;;;;;;;17.73;8.67;;;-11.00;99.90;;;;;;5022639;28;20207;-73
2021/01/17 03:53:07;;;;;;;15.53;7.57;;;-11.00;99.90;;;;;;5025646;28;20243;-74
2021/01/17 03:55:33;;;;;;;13.57;6.87;;;-10.90;99.90;;;;;;5019803;28;20644;-74
2021/01/17 03:58:00;;;;;;;15.37;7.70;;;-11.00;99.90;;;;;;5016582;28;20301;-73
2021/01/17 04:00:26;;;;;;;19.07;7.60;;;-11.00;99.90;;;;;;5021896;28;20676;-74
2021/01/17 04:02:52;;;;;;;16.50;8.00;;;-11.00;99.90;;;;;;5021678;28;20289;-74
2021/01/17 04:05:19;;;;;;;17.20;7.57;;;-11.00;99.90;;;;;;5019997;28;20271;-74
2021/01/17 04:07:46;;;;;;;20.70;7.80;;;-11.00;99.90;;;;;;5022107;28;20206;-73
2021/01/17 04:10:13;;;;;;;18.97;8.63;;;-11.00;99.90;;;;;;5024642;28;20234;-73
2021/01/17 04:12:39;;;;;;;13.80;7.33;;;-11.00;99.90;;;;;;5019517;28;20279;-74
2021/01/17 04:15:06;;;;;;;14.13;6.80;;;-11.00;99.90;;;;;;5021816;28;20199;-74
2021/01/17 04:17:33;;;;;;;17.30;7.57;;;-11.00;99.90;;;;;;5013884;28;20208;-74
2021/01/17 04:19:59;;;;;;;16.47;6.77;;;-11.00;99.90;;;;;;5017979;28;20229;-73
2021/01/17 04:22:25;;;;;;;12.93;7.17;;;-11.00;99.90;;;;;;5016957;28;20257;-73
2021/01/17 04:24:53;;;;;;;11.70;6.13;;;-11.10;99.90;;;;;;5019835;28;20206;-73
2021/01/17 04:27:19;;;;;;;19.83;7.60;;;-11.10;99.90;;;;;;5013625;28;20210;-73
2021/01/17 04:29:45;;;;;;;11.50;6.47;;;-11.10;99.90;;;;;;5015325;28;20254;-73
2021/01/17 04:32:12;;;;;;;12.97;7.13;;;-11.20;99.90;;;;;;5020828;28;20243;-73
2021/01/17 04:34:38;;;;;;;17.17;7.70;;;-11.20;99.90;;;;;;5019799;28;20276;-74
2021/01/17 04:37:04;;;;;;;17.00;7.60;;;-11.20;99.90;;;;;;5019574;28;20265;-74
2021/01/17 04:39:31;;;;;;;11.53;6.50;;;-11.20;99.90;;;;;;5018317;28;20211;-74
2021/01/17 04:41:58;;;;;;;19.50;7.63;;;-11.20;99.90;;;;;;5014706;28;20290;-74
2021/01/17 04:44:33;;;;;;;23.37;7.90;;;-11.20;99.90;;;;;;5012946;28;20200;-74
2021/01/17 04:47:03;;;;;;;15.70;7.07;;;-11.20;99.90;;;;;;5022503;28;20242;-74
2021/01/17 04:49:31;;;;;;;13.63;7.17;;;-11.20;99.90;;;;;;5010878;28;20234;-74
2021/01/17 04:51:58;;;;;;;17.80;8.07;;;-11.20;99.90;;;;;;5016352;28;21701;-74
2021/01/17 04:54:27;;;;;;;17.83;8.80;;;-11.30;99.90;;;;;;5021452;28;20206;-74
2021/01/17 04:57:05;;;;;;;17.07;7.23;;;-11.20;99.90;;;;;;5015736;28;20211;-74
2021/01/17 04:59:36;;;;;;;14.80;6.83;;;-11.20;99.90;;;;;;5017404;28;20222;-74
2021/01/17 05:02:29;;;;;;;17.53;7.87;;;-11.10;99.90;;;;;;5020228;28;20691;-73
2021/01/17 05:05:15;;;;;;;19.13;8.10;;;-11.10;99.90;;;;;;5019739;28;20749;-73
2021/01/17 05:07:50;;;;;;;19.70;8.13;;;-11.10;99.90;;;;;;5016701;28;20209;-73
2021/01/17 05:10:36;;;;;;;17.47;6.60;;;-11.10;99.90;;;;;;5014555;28;20211;-73
2021/01/17 05:13:16;;;;;;;20.37;7.63;;;-11.10;99.90;;;;;;5014386;28;20673;-72
2021/01/17 05:15:43;;;;;;;18.60;7.40;;;-11.10;99.90;;;;;;5017927;28;20249;-72
2021/01/17 05:18:11;;;;;;;18.20;8.57;;;-11.10;99.90;;;;;;5011161;28;20218;-72
2021/01/17 05:20:37;;;;;;;16.20;7.47;;;-11.10;99.90;;;;;;5016523;28;20222;-72
2021/01/17 05:23:09;;;;;;;19.50;8.23;;;-11.00;99.90;;;;;;5018064;28;20223;-73
2021/01/17 05:25:36;;;;;;;13.13;6.83;;;-11.00;99.90;;;;;;5013480;28;20285;-73
2021/01/17 05:28:02;;;;;;;18.00;7.70;;;-11.00;99.90;;;;;;5010739;28;20294;-74
2021/01/17 05:30:30;;;;;;;16.23;8.07;;;-11.00;99.90;;;;;;5019573;28;20218;-73
2021/01/17 05:32:56;;;;;;;17.47;7.37;;;-11.00;99.90;;;;;;5010537;28;20210;-73
2021/01/17 05:35:24;;;;;;;17.33;8.13;;;-11.00;99.90;;;;;;5016993;28;20215;-72
2021/01/17 05:37:52;;;;;;;23.07;9.27;;;-11.00;99.90;;;;;;5041461;28;20682;-73
2021/01/17 05:40:19;;;;;;;23.03;7.40;;;-11.00;99.90;;;;;;5014420;28;20302;-73
2021/01/17 05:42:47;;;;;;;15.90;7.53;;;-11.00;99.90;;;;;;5013617;28;20200;-73
2021/01/17 05:45:16;;;;;;;16.53;7.83;;;-11.00;99.90;;;;;;5013385;28;20207;-72
2021/01/17 05:47:53;;;;;;;19.77;9.43;;;-11.00;99.90;;;;;;5016334;28;20207;-72
2021/01/17 05:50:20;;;;;;;16.33;8.67;;;-11.00;99.90;;;;;;5015708;28;20215;-72
2021/01/17 05:52:52;;;;;;;19.67;8.53;;;-11.00;99.90;;;;;;5017166;28;20206;-73
2021/01/17 05:55:19;;;;;;;17.43;8.37;;;-11.00;99.90;;;;;;5016632;28;20253;-72
2021/01/17 05:57:45;;;;;;;17.13;7.73;;;-10.90;99.90;;;;;;5011834;28;20220;-73
2021/01/17 06:00:13;;;;;;;22.60;8.40;;;-10.90;99.90;;;;;;5011539;28;20572;-73
2021/01/17 06:02:40;;;;;;;18.10;8.67;;;-10.80;99.90;;;;;;5014463;28;20214;-73
2021/01/17 06:05:11;;;;;;;15.23;7.80;;;-10.70;99.90;;;;;;5015221;28;20235;-73
2021/01/17 06:07:48;;;;;;;20.23;8.27;;;-10.70;99.90;;;;;;5007401;28;20669;-73
2021/01/17 06:10:23;;;;;;;16.03;7.80;;;-10.60;99.90;;;;;;5012983;28;20571;-73
2021/01/17 06:12:51;;;;;;;18.50;8.90;;;-10.60;99.90;;;;;;5012704;28;20273;-74
2021/01/17 06:15:17;;;;;;;15.23;8.40;;;-10.60;99.90;;;;;;5008359;28;20561;-73
2021/01/17 06:17:46;;;;;;;30.17;7.90;;;-10.50;99.90;;;;;;5011351;28;20217;-75
2021/01/17 06:20:21;;;;;;;19.40;8.53;;;-10.50;99.90;;;;;;5009488;28;20302;-73
2021/01/17 06:22:48;;;;;;;19.67;8.43;;;-10.50;99.90;;;;;;5015320;28;20210;-73
2021/01/17 06:25:15;;;;;;;20.10;9.03;;;-10.50;99.90;;;;;;5015368;28;20292;-73
2021/01/17 06:27:41;;;;;;;18.63;8.73;;;-10.40;99.90;;;;;;5011954;28;20652;-73
2021/01/17 06:30:18;;;;;;;18.47;8.40;;;-10.50;99.90;;;;;;5006466;28;20237;-72
2021/01/17 06:32:47;;;;;;;26.53;9.13;;;-10.50;99.90;;;;;;5011155;28;20205;-73
2021/01/17 06:35:14;;;;;;;20.27;8.10;;;-10.50;99.90;;;;;;5010496;28;20301;-73
2021/01/17 06:37:40;;;;;;;16.30;9.13;;;-10.40;99.90;;;;;;5018070;28;20206;-73
2021/01/17 06:40:08;;;;;;;23.67;9.70;;;-10.40;99.90;;;;;;5011446;28;20203;-71
2021/01/17 06:42:35;;;;;;;18.83;7.97;;;-10.40;99.90;;;;;;5011731;28;20235;-72
2021/01/17 06:45:15;;;;;;;15.33;7.70;;;-10.40;99.90;;;;;;5019488;28;20276;-73
2021/01/17 06:47:53;;;;;;;15.27;7.80;;;-10.40;99.90;;;;;;5008057;28;20207;-74
2021/01/17 06:50:23;;;;;;;25.37;8.60;;;-10.30;99.90;;;;;;5014547;28;20231;-72
2021/01/17 06:52:54;;;;;;;12.70;7.67;;;-10.30;99.90;;;;;;5006477;28;20199;-72
2021/01/17 06:55:21;;;;;;;17.43;8.10;;;-10.20;99.90;;;;;;5013468;28;20203;-73
2021/01/17 06:57:48;;;;;;;19.27;9.20;;;-10.20;99.90;;;;;;5019204;28;20238;-74
2021/01/17 07:00:17;;;;;;;16.17;8.27;;;-10.20;99.90;;;;;;5012546;28;20204;-73
2021/01/17 07:02:54;;;;;;;18.43;9.50;;;-10.30;99.90;;;;;;5003135;28;20656;-73
2021/01/17 07:05:46;;;;;;;20.57;9.20;;;-10.30;99.90;;;;;;5011645;28;20292;-74
2021/01/17 07:09:00;;;;;;;22.77;8.57;;;-10.30;99.90;;;;;;5007756;28;20295;-74
2021/01/17 07:11:42;;;;;;;18.30;8.10;;;-10.30;99.90;;;;;;5006135;28;20331;-73
2021/01/17 07:14:09;;;;;;;19.00;8.23;;;-10.30;99.90;;;;;;5002274;28;20211;-73
2021/01/17 07:16:36;;;;;;;17.50;8.77;;;-10.30;99.90;;;;;;5013963;28;20301;-73
2021/01/17 07:19:06;;;;;;;17.67;8.20;;;-10.30;99.90;;;;;;5012822;28;20226;-73
2021/01/17 07:21:41;;;;;;;14.80;7.73;;;-10.40;99.90;;;;;;5009154;28;20231;-74
2021/01/17 07:24:09;;;;;;;16.60;7.47;;;-10.30;99.90;;;;;;5004011;28;20226;-72
2021/01/17 07:26:52;;;;;;;14.97;7.73;;;-10.40;99.90;;;;;;5010423;28;20614;-72
2021/01/17 07:29:19;;;;;;;24.00;10.13;;;-10.50;99.90;;;;;;5013690;28;20234;-73
2021/01/17 07:31:47;;;;;;;18.03;7.87;;;-10.50;99.90;;;;;;5007491;28;20211;-74
2021/01/17 07:34:14;;;;;;;21.77;8.77;;;-10.50;99.90;;;;;;5014675;28;20209;-71
2021/01/17 07:36:48;;;;;;;19.13;8.27;;;-10.50;99.90;;;;;;5012338;28;20207;-73
2021/01/17 07:39:18;;;;;;;21.00;8.77;;;-10.50;99.90;;;;;;5014670;28;20214;-72
2021/01/17 07:41:47;;;;;;;19.70;9.70;;;-10.50;99.90;;;;;;5014180;28;20204;-73
2021/01/17 07:44:16;;;;;;;22.43;8.70;;;-10.60;99.90;;;;;;5014269;28;20222;-72
2021/01/17 07:46:43;;;;;;;23.10;8.27;;;-10.50;99.90;;;;;;5013616;28;20211;-72
2021/01/17 07:49:11;;;;;;;20.33;7.43;;;-10.60;99.90;;;;;;5009636;28;20291;-73
2021/01/17 07:51:38;;;;;;;18.83;8.67;;;-10.60;99.90;;;;;;5012866;28;20207;-72
2021/01/17 07:54:15;;;;;;;20.53;8.80;;;-10.50;99.90;;;;;;5013634;28;20203;-74
2021/01/17 07:56:43;;;;;;;21.10;9.60;;;-10.50;99.90;;;;;;5010049;28;20258;-75
2021/01/17 07:59:10;;;;;;;22.87;9.53;;;-10.40;99.90;;;;;;5005178;28;20598;-74
2021/01/17 08:01:47;;;;;;;22.00;9.40;;;-10.40;99.90;;;;;;5018389;28;20298;-75
2021/01/17 08:04:30;;;;;;;22.23;9.07;;;-10.30;99.90;;;;;;5017169;28;20564;-73
2021/01/17 08:06:58;;;;;;;20.90;8.87;;;-10.40;99.90;;;;;;5010928;28;20202;-74
2021/01/17 08:09:45;;;;;;;22.67;9.60;;;-10.30;99.90;;;;;;5024798;28;20235;-73
2021/01/17 08:12:37;;;;;;;20.57;9.27;;;-10.30;99.90;;;;;;5002361;28;20278;-74
2021/01/17 08:15:36;;;;;;;14.03;7.60;;;-10.20;99.90;;;;;;5002191;28;20212;-75
2021/01/17 08:18:03;;;;;;;23.70;9.37;;;-10.10;99.90;;;;;;5003475;28;20283;-74
2021/01/17 08:20:31;;;;;;;18.70;9.40;;;-10.10;99.90;;;;;;5001316;28;20212;-75
2021/01/17 08:23:12;;;;;;;25.00;9.57;;;-10.00;99.90;;;;;;5003319;28;20224;-76
2021/01/17 08:25:58;;;;;;;23.50;9.93;;;-9.90;99.90;;;;;;4999708;28;20200;-73
2021/01/17 08:28:40;;;;;;;21.73;10.70;;;-9.90;99.90;;;;;;5010492;28;20222;-72
2021/01/17 08:31:43;;;;;;;18.10;8.67;;;-9.80;99.90;;;;;;5016329;28;20234;-75
2021/01/17 08:34:14;;;;;;;20.13;9.90;;;-9.70;99.90;;;;;;5007585;28;20265;-74
2021/01/17 08:36:41;;;;;;;24.53;9.43;;;-9.50;99.90;;;;;;5008490;28;20235;-74
2021/01/17 08:39:09;;;;;;;24.33;9.03;;;-9.50;99.90;;;;;;5016449;28;20645;-74
2021/01/17 08:41:39;;;;;;;21.00;9.97;;;-9.40;99.90;;;;;;5011734;28;20203;-74
2021/01/17 08:44:08;;;;;;;21.40;10.20;;;-9.40;99.90;;;;;;5007905;28;20922;-74
2021/01/17 08:46:40;;;;;;;19.30;9.00;;;-9.40;99.90;;;;;;5011611;28;20207;-76
2021/01/17 08:49:07;;;;;;;24.87;11.37;;;-9.40;99.90;;;;;;5016163;28;20219;-72
2021/01/17 08:51:33;;;;;;;21.90;9.83;;;-9.40;99.90;;;;;;5006791;28;20208;-74
2021/01/17 08:54:28;;;;;;;23.33;9.83;;;-9.40;99.90;;;;;;5015448;28;20204;-73
2021/01/17 08:56:56;;;;;;;25.27;8.80;;;-9.30;99.90;;;;;;5013488;28;20649;-76
2021/01/17 08:59:35;;;;;;;22.57;10.40;;;-9.30;99.90;;;;;;5017445;28;20211;-74
2021/01/17 09:02:02;;;;;;;22.33;10.27;;;-9.30;99.90;;;;;;4999448;28;20250;-74
2021/01/17 09:04:29;;;;;;;25.47;9.93;;;-9.30;99.90;;;;;;5012994;28;20660;-74
2021/01/17 09:06:57;;;;;;;17.53;9.43;;;-9.40;99.90;;;;;;5019836;28;20239;-74
2021/01/17 09:09:24;;;;;;;22.43;10.57;;;-9.40;99.90;;;;;;5009955;28;20594;-73
2021/01/17 09:11:52;;;;;;;17.47;9.60;;;-9.50;99.90;;;;;;5015466;28;20307;-72
2021/01/17 09:14:28;;;;;;;22.37;10.07;;;-9.50;99.90;;;;;;5015972;28;20290;-71
2021/01/17 09:16:56;;;;;;;20.17;10.40;;;-9.60;99.90;;;;;;5002421;28;20290;-71
2021/01/17 09:19:25;;;;;;;24.17;10.27;;;-9.60;99.90;;;;;;5013423;28;20685;-71
2021/01/17 09:21:53;;;;;;;21.87;9.80;;;-9.70;99.90;;;;;;5014705;28;20556;-72
2021/01/17 09:24:21;;;;;;;22.17;10.43;;;-9.80;99.90;;;;;;5013967;28;20215;-73
2021/01/17 09:26:50;;;;;;;23.23;10.60;;;-9.80;99.90;;;;;;5011558;28;20757;-72
2021/01/17 09:29:29;;;;;;;22.50;11.20;;;-9.80;99.90;;;;;;5015125;28;20234;-72
2021/01/17 09:32:07;;;;;;;22.17;8.73;;;-9.80;99.90;;;;;;5015224;28;20234;-72
2021/01/17 09:34:35;;;;;;;25.83;10.90;;;-9.80;99.90;;;;;;5009210;28;20214;-71
2021/01/17 09:37:06;;;;;;;21.30;10.47;;;-9.90;99.90;;;;;;5021553;28;20217;-69
2021/01/17 09:39:35;;;;;;;18.57;10.30;;;-10.00;99.90;;;;;;5012350;28;20210;-70
2021/01/17 09:42:03;;;;;;;18.87;10.43;;;-10.10;99.90;;;;;;5009772;28;20298;-72
2021/01/17 09:44:32;;;;;;;24.90;11.67;;;-10.10;99.90;;;;;;5006606;28;20288;-73
2021/01/17 09:46:59;;;;;;;26.13;11.03;;;-10.20;99.90;;;;;;5011869;28;20216;-72
2021/01/17 09:49:27;;;;;;;31.87;11.93;;;-10.20;99.90;;;;;;5012803;28;20220;-73
2021/01/17 09:51:54;;;;;;;26.67;11.63;;;-10.30;99.90;;;;;;5013216;28;20253;-73
2021/01/17 09:54:22;;;;;;;25.30;12.10;;;-10.40;99.90;;;;;;5015668;28;20207;-72
2021/01/17 09:56:49;;;;;;;26.53;11.67;;;-10.40;99.90;;;;;;5015817;28;20667;-73
2021/01/17 09:59:18;;;;;;;21.83;11.23;;;-10.50;99.90;;;;;;5014810;28;20216;-70
2021/01/17 10:01:46;;;;;;;25.93;11.93;;;-10.50;99.90;;;;;;5013240;28;20203;-69
2021/01/17 10:04:27;;;;;;;25.23;11.23;;;-10.40;99.90;;;;;;5013998;28;20222;-70
2021/01/17 10:06:56;;;;;;;26.40;12.47;;;-10.40;99.90;;;;;;5010497;28;20235;-71
2021/01/17 10:09:24;;;;;;;22.10;11.27;;;-10.40;99.90;;;;;;5013078;28;20262;-70
2021/01/17 10:11:58;;;;;;;27.33;12.00;;;-10.40;99.90;;;;;;5014653;28;20227;-70
2021/01/17 10:14:28;;;;;;;28.17;12.27;;;-10.30;99.90;;;;;;5014497;28;20286;-71
2021/01/17 10:16:57;;;;;;;33.03;13.47;;;-10.20;99.90;;;;;;5014534;28;20254;-72
2021/01/17 10:19:29;;;;;;;25.10;12.13;;;-10.10;99.90;;;;;;5014302;28;20238;-71
2021/01/17 10:21:57;;;;;;;29.70;13.07;;;-10.10;99.90;;;;;;5016084;28;20281;-70
2021/01/17 10:24:25;;;;;;;32.47;12.10;;;-10.00;99.90;;;;;;5011046;28;20222;-70
2021/01/17 10:26:56;;;;;;;27.73;12.63;;;-10.00;99.90;;;;;;5013419;28;20286;-70
2021/01/17 10:29:25;;;;;;;25.87;11.93;;;-10.00;99.90;;;;;;4996255;28;20230;-70
2021/01/17 10:32:02;;;;;;;30.63;11.23;;;-9.90;99.90;;;;;;5009051;28;20314;-70
2021/01/17 10:34:31;;;;;;;27.73;12.87;;;-10.00;99.90;;;;;;5011465;28;20222;-70
2021/01/17 10:37:03;;;;;;;31.30;13.20;;;-10.00;99.90;;;;;;5015069;28;20265;-70
2021/01/17 10:39:31;;;;;;;32.27;12.60;;;-10.10;99.90;;;;;;5011329;28;20607;-70
2021/01/17 10:42:32;;;;;;;30.93;12.50;;;-10.00;99.90;;;;;;5011051;28;20207;-70
2021/01/17 10:45:01;;;;;;;30.40;12.50;;;-10.00;99.90;;;;;;5004485;28;20211;-69
2021/01/17 10:47:41;;;;;;;30.37;12.27;;;-9.90;99.90;;;;;;5012393;28;20214;-70
2021/01/17 10:50:11;;;;;;;35.10;13.90;;;-9.90;99.90;;;;;;5013630;28;20310;-71
2021/01/17 10:52:42;;;;;;;30.87;12.93;;;-9.80;99.90;;;;;;5012584;28;20207;-71
2021/01/17 10:55:14;;;;;;;29.47;12.63;;;-9.70;99.90;;;;;;5014750;28;20203;-71
2021/01/17 10:57:41;;;;;;;29.97;11.80;;;-9.60;99.90;;;;;;5002321;28;20203;-71
2021/01/17 11:00:10;;;;;;;27.73;12.77;;;-9.50;99.90;;;;;;4997790;28;20215;-71
2021/01/17 11:02:37;;;;;;;27.27;12.23;;;-9.50;99.90;;;;;;4999938;28;20218;-71
2021/01/17 11:05:06;;;;;;;24.83;13.47;;;-9.40;99.90;;;;;;5022946;28;20242;-70
2021/01/17 11:07:33;;;;;;;34.80;14.53;;;-9.40;99.90;;;;;;5004464;28;20215;-70
2021/01/17 11:09:59;;;;;;;24.83;12.47;;;-9.20;99.90;;;;;;5007729;28;20231;-71
2021/01/17 11:12:36;;;;;;;25.00;12.00;;;-9.20;99.90;;;;;;5001060;28;20231;-71
2021/01/17 11:15:13;;;;;;;23.63;11.47;;;-9.10;99.90;;;;;;5012938;28;20727;-70
2021/01/17 11:17:42;;;;;;;25.07;11.93;;;-9.00;99.90;;;;;;5007418;28;20311;-71
2021/01/17 11:20:09;;;;;;;28.27;13.00;;;-8.80;99.90;;;;;;5005467;28;20282;-70
2021/01/17 11:22:37;;;;;;;22.47;10.97;;;-8.60;99.90;;;;;;5019052;28;20226;-71
2021/01/17 11:25:05;;;;;;;26.53;12.70;;;-8.40;99.80;;;;;;5008689;28;20270;-70
2021/01/17 11:27:36;;;;;;;33.30;14.17;;;-8.20;99.00;;;;;;5001874;28;20226;-70
2021/01/17 11:30:04;;;;;;;28.20;13.03;;;-7.80;99.30;;;;;;4992715;28;20228;-69
2021/01/17 11:32:34;;;;;;;23.00;10.80;;;-7.10;99.70;;;;;;5023450;28;20237;-71
2021/01/17 11:35:01;;;;;;;27.87;11.07;;;-6.40;99.10;;;;;;5019367;28;20727;-71
2021/01/17 11:37:35;;;;;;;29.03;12.03;;;-5.30;99.90;;;;;;5016145;28;20215;-72
2021/01/17 11:40:07;;;;;;;29.17;12.73;;;-4.40;96.10;;;;;;5016388;28;20566;-71
2021/01/17 11:42:33;;;;;;;24.10;13.67;;;-4.00;91.50;;;;;;5007668;28;20212;-71
2021/01/17 11:45:13;;;;;;;24.70;11.10;;;-4.00;86.70;;;;;;5006940;28;20207;-68
2021/01/17 11:47:42;;;;;;;24.27;12.07;;;-4.00;81.20;;;;;;5012779;28;20203;-68
2021/01/17 11:50:19;;;;;;;28.27;13.43;;;-4.40;75.40;;;;;;5012178;28;20231;-71
2021/01/17 11:52:56;;;;;;;24.23;12.00;;;-4.70;73.00;;;;;;5009361;28;20720;-71
2021/01/17 11:55:22;;;;;;;28.60;13.37;;;-5.10;72.50;;;;;;5015599;28;20191;-69
2021/01/17 11:57:49;;;;;;;28.90;13.27;;;-5.50;73.00;;;;;;5004542;28;20208;-70
2021/01/17 12:00:17;;;;;;;28.80;13.13;;;-5.80;73.90;;;;;;5010430;28;20242;-71
2021/01/17 12:02:43;;;;;;;26.50;13.07;;;-6.00;74.60;;;;;;5012836;28;20214;-70
2021/01/17 12:05:16;;;;;;;27.73;12.50;;;-6.30;75.70;;;;;;5003111;28;20255;-68
2021/01/17 12:08:05;;;;;;;22.93;12.33;;;-6.40;76.30;;;;;;5000654;28;20212;-69
2021/01/17 12:10:35;;;;;;;32.90;13.87;;;-6.50;77.70;;;;;;5009663;28;20698;-71
2021/01/17 12:13:01;;;;;;;27.33;14.53;;;-6.60;78.70;;;;;;5009722;28;20227;-71
2021/01/17 12:15:30;;;;;;;33.43;13.40;;;-6.60;79.30;;;;;;5009967;28;20669;-71
2021/01/17 12:17:58;;;;;;;28.17;13.93;;;-6.50;79.50;;;;;;5018357;28;20222;-70
2021/01/17 12:20:24;;;;;;;30.27;14.03;;;-6.70;79.00;;;;;;5015968;28;20668;-70
2021/01/17 12:22:51;;;;;;;31.13;14.80;;;-6.80;79.10;;;;;;5010953;28;20641;-71
2021/01/17 12:25:18;;;;;;;28.20;14.77;;;-6.90;80.90;;;;;;5009972;28;20295;-69
2021/01/17 12:27:45;;;;;;;43.80;16.20;;;-6.80;82.90;;;;;;5010903;28;20204;-69
2021/01/17 12:30:17;;;;;;;29.77;15.00;;;-6.70;83.50;;;;;;5019706;28;20284;-70
2021/01/17 12:32:43;;;;;;;33.90;13.50;;;-6.60;83.40;;;;;;5019825;28;20211;-72
2021/01/17 12:35:11;;;;;;;27.80;14.73;;;-6.60;83.20;;;;;;5011844;28;20602;-72
2021/01/17 12:37:38;;;;;;;36.93;16.20;;;-6.40;84.30;;;;;;5011150;28;20217;-71
2021/01/17 12:40:06;;;;;;;27.70;15.07;;;-6.30;85.40;;;;;;5016176;28;20211;-71
2021/01/17 12:42:34;;;;;;;29.80;15.43;;;-6.20;84.50;;;;;;5015245;28;20203;-70